Time;durP1;ratioP1;P1;durP2;ratioP2;P2;SDS_P1;SDS_P2;PMS_P1;PMS_P2;Temp;Humidity;BMP_temperature;BMP_pressure;BME280_temperature;BME280_humidity;BME280_pressure;Samples;Min_cycle;Max_cycle;Signal;HPM_P1;HPM_P2
2024/03/04 00:00:27;;;;;;;2.30;2.20;;;15.60;67.50;;;;;;4984560;28;20042;-76
2024/03/04 00:02:53;;;;;;;2.17;2.00;;;15.60;67.40;;;;;;4982605;28;20050;-77
2024/03/04 00:05:19;;;;;;;1.70;1.60;;;15.60;67.60;;;;;;4987310;28;20046;-76
2024/03/04 00:07:45;;;;;;;2.00;1.90;;;15.60;68.30;;;;;;4986046;28;20535;-76
2024/03/04 00:10:11;;;;;;;1.90;1.80;;;15.60;67.50;;;;;;4984998;28;20049;-76
2024/03/04 00:12:36;;;;;;;1.95;1.80;;;15.60;67.60;;;;;;4986309;28;20038;-76
2024/03/04 00:15:02;;;;;;;2.58;1.80;;;15.60;67.30;;;;;;4985498;28;20117;-76
2024/03/04 00:17:29;;;;;;;1.88;1.77;;;15.60;67.60;;;;;;4991096;28;20041;-76
2024/03/04 00:19:54;;;;;;;1.90;1.80;;;15.50;67.40;;;;;;4990481;28;20045;-76
2024/03/04 00:22:20;;;;;;;2.15;2.05;;;15.50;67.20;;;;;;4989501;28;20038;-76
2024/03/04 00:24:45;;;;;;;2.00;1.90;;;15.50;67.20;;;;;;4990242;28;20494;-75
2024/03/04 00:27:11;;;;;;;2.08;1.98;;;15.60;67.40;;;;;;4989654;28;20477;-76
2024/03/04 00:29:37;;;;;;;1.90;1.80;;;15.60;67.50;;;;;;4990398;28;20050;-76
2024/03/04 00:32:02;;;;;;;2.08;1.98;;;15.50;67.30;;;;;;4983538;28;20402;-76
2024/03/04 00:34:28;;;;;;;2.00;1.90;;;15.50;67.30;;;;;;4986087;28;20050;-76
2024/03/04 00:36:54;;;;;;;2.20;2.00;;;15.50;67.40;;;;;;4988536;28;20038;-76
2024/03/04 00:39:21;;;;;;;1.67;1.58;;;15.50;67.40;;;;;;4989242;28;20566;-76
2024/03/04 00:41:47;;;;;;;1.80;1.70;;;15.50;67.30;;;;;;4986435;28;20065;-76
2024/03/04 00:44:13;;;;;;;1.80;1.70;;;15.50;67.20;;;;;;4991064;28;20062;-76
2024/03/04 00:46:41;;;;;;;1.70;1.60;;;15.50;67.00;;;;;;4988005;28;20086;-76
2024/03/04 00:49:08;;;;;;;1.90;1.80;;;15.50;67.10;;;;;;4988703;28;20050;-76
2024/03/04 00:51:36;;;;;;;1.90;1.80;;;15.50;67.10;;;;;;4986598;28;20050;-76
2024/03/04 00:54:02;;;;;;;2.88;2.20;;;15.50;67.10;;;;;;4990884;28;20514;-76
2024/03/04 00:56:27;;;;;;;2.20;2.00;;;15.50;67.10;;;;;;4989817;28;20057;-76
2024/03/04 00:58:53;;;;;;;1.92;1.83;;;15.50;67.10;;;;;;4990874;28;20049;-76
2024/03/04 01:01:18;;;;;;;1.92;1.83;;;15.50;67.20;;;;;;4987624;28;20507;-76
2024/03/04 01:03:44;;;;;;;3.13;1.58;;;15.40;67.00;;;;;;4989809;28;20053;-76
2024/03/04 01:06:10;;;;;;;1.98;1.88;;;15.50;67.10;;;;;;4987935;28;20088;-76
2024/03/04 01:08:35;;;;;;;1.85;1.75;;;15.50;67.10;;;;;;4989170;28;20097;-76
2024/03/04 01:11:01;;;;;;;2.25;2.13;;;15.50;67.10;;;;;;4990322;28;20125;-76
2024/03/04 01:13:26;;;;;;;1.90;1.80;;;15.50;67.10;;;;;;4989079;28;20038;-76
2024/03/04 01:15:52;;;;;;;1.60;1.50;;;15.50;67.20;;;;;;4989582;28;20026;-76
2024/03/04 01:18:18;;;;;;;1.85;1.75;;;15.40;67.00;;;;;;4989453;28;20042;-76
2024/03/04 01:20:46;;;;;;;1.85;1.75;;;15.50;67.10;;;;;;4989144;28;20041;-76
2024/03/04 01:23:12;;;;;;;1.83;1.73;;;15.40;67.00;;;;;;4990252;28;20108;-76
2024/03/04 01:25:41;;;;;;;2.60;2.15;;;15.40;67.00;;;;;;4989114;28;20034;-76
2024/03/04 01:28:07;;;;;;;1.80;1.70;;;15.40;66.90;;;;;;4984281;28;20491;-76
2024/03/04 01:30:32;;;;;;;1.65;1.55;;;15.40;66.90;;;;;;4989109;28;20038;-76
2024/03/04 01:32:59;;;;;;;2.00;1.90;;;15.40;67.20;;;;;;4986686;28;20107;-76
2024/03/04 01:35:28;;;;;;;2.05;1.95;;;15.40;67.10;;;;;;4989030;28;20062;-76
2024/03/04 01:37:53;;;;;;;4.18;1.73;;;15.40;67.00;;;;;;4981358;28;20121;-76
2024/03/04 01:40:19;;;;;;;1.98;1.75;;;15.40;66.90;;;;;;4988796;28;20146;-76
2024/03/04 01:42:44;;;;;;;1.73;1.63;;;15.40;67.00;;;;;;4988942;28;20073;-75
2024/03/04 01:45:19;;;;;;;1.50;1.40;;;15.40;66.80;;;;;;4987269;28;20519;-76
2024/03/04 01:47:44;;;;;;;;;;;15.40;67.00;;;;;;4988631;28;20073;-75
2024/03/04 01:50:10;;;;;;;2.00;1.90;;;15.40;66.80;;;;;;4988516;28;19917;-76
2024/03/04 01:52:35;;;;;;;1.63;1.52;;;15.40;66.90;;;;;;4988540;28;20109;-76
2024/03/04 01:55:01;;;;;;;2.03;1.80;;;15.40;66.80;;;;;;4984379;28;20046;-76
2024/03/04 01:57:27;;;;;;;3.10;1.90;;;15.40;66.90;;;;;;4985242;28;20039;-76
2024/03/04 01:59:53;;;;;;;1.95;1.85;;;15.40;66.90;;;;;;4988423;28;20061;-76
2024/03/04 02:02:18;;;;;;;1.85;1.75;;;15.40;66.80;;;;;;4987780;28;20038;-76
2024/03/04 02:04:44;;;;;;;2.15;1.70;;;15.40;66.90;;;;;;4987066;28;20086;-76
2024/03/04 02:07:10;;;;;;;1.85;1.75;;;15.40;66.90;;;;;;4984383;28;20050;-76
2024/03/04 02:09:35;;;;;;;2.20;2.10;;;15.30;66.90;;;;;;4985153;28;20065;-76
2024/03/04 02:12:03;;;;;;;1.63;1.52;;;15.40;66.70;;;;;;4986761;28;20026;-76
2024/03/04 02:14:29;;;;;;;1.80;1.70;;;15.40;66.90;;;;;;4987681;28;20101;-76
2024/03/04 02:16:55;;;;;;;1.85;1.75;;;15.40;66.90;;;;;;4988000;28;20092;-75
2024/03/04 02:19:21;;;;;;;1.60;1.50;;;15.40;66.90;;;;;;4985643;28;20042;-76
2024/03/04 02:22:07;;;;;;;1.80;1.70;;;15.40;66.80;;;;;;4985707;28;20070;-76
2024/03/04 02:24:33;;;;;;;1.67;1.58;;;15.30;66.80;;;;;;4985294;28;20046;-75
2024/03/04 02:26:59;;;;;;;1.85;1.73;;;15.30;66.80;;;;;;4984659;28;20408;-75
2024/03/04 02:29:24;;;;;;;1.65;1.55;;;15.30;66.70;;;;;;4989247;28;20057;-75
2024/03/04 02:31:50;;;;;;;1.73;1.63;;;15.30;66.70;;;;;;4985927;28;20532;-75
2024/03/04 02:34:16;;;;;;;1.70;1.60;;;15.30;66.80;;;;;;4983174;28;20062;-76
2024/03/04 02:36:41;;;;;;;1.58;1.48;;;15.30;66.80;;;;;;4985520;28;20096;-76
2024/03/04 02:39:10;;;;;;;2.17;2.08;;;15.30;66.70;;;;;;4982972;28;20034;-76
2024/03/04 02:41:37;;;;;;;1.70;1.60;;;15.30;66.70;;;;;;4985540;28;20053;-76
2024/03/04 02:44:03;;;;;;;2.00;1.90;;;15.30;67.50;;;;;;4987564;28;20141;-76
2024/03/04 02:46:28;;;;;;;1.60;1.50;;;15.30;66.70;;;;;;4987467;28;20058;-76
2024/03/04 02:48:55;;;;;;;1.42;1.38;;;15.30;66.70;;;;;;4987619;28;20042;-76
2024/03/04 02:51:21;;;;;;;1.75;1.65;;;15.30;66.60;;;;;;4985293;28;20038;-76
2024/03/04 02:53:46;;;;;;;1.73;1.63;;;15.30;66.50;;;;;;4987581;28;20061;-76
2024/03/04 02:56:12;;;;;;;1.60;1.50;;;15.30;66.50;;;;;;4988132;28;20404;-76
2024/03/04 02:58:37;;;;;;;1.60;1.50;;;15.30;66.70;;;;;;4981707;28;20069;-76
2024/03/04 03:01:03;;;;;;;1.70;1.60;;;15.30;66.50;;;;;;4986023;28;20172;-76
2024/03/04 03:03:29;;;;;;;1.88;1.77;;;15.30;66.60;;;;;;5001513;28;20062;-76
2024/03/04 03:05:54;;;;;;;1.60;1.50;;;15.20;66.70;;;;;;4986727;28;20038;-76
2024/03/04 03:08:20;;;;;;;1.55;1.45;;;15.30;66.60;;;;;;4985680;28;20081;-76
2024/03/04 03:10:46;;;;;;;2.33;1.55;;;15.30;66.90;;;;;;4986485;28;20038;-76
2024/03/04 03:13:12;;;;;;;2.85;1.77;;;15.20;66.70;;;;;;4968512;28;20042;-76
2024/03/04 03:15:38;;;;;;;1.60;1.50;;;15.20;66.60;;;;;;4981188;28;20058;-76
2024/03/04 03:18:06;;;;;;;1.52;1.42;;;15.20;66.70;;;;;;4975034;28;20049;-76
2024/03/04 03:20:32;;;;;;;1.33;1.15;;;15.30;66.70;;;;;;4985827;28;20571;-76
2024/03/04 03:22:57;;;;;;;1.75;1.65;;;15.20;66.50;;;;;;4986268;28;20122;-76
2024/03/04 03:25:23;;;;;;;1.48;1.38;;;15.20;66.50;;;;;;4986316;28;20049;-76
2024/03/04 03:27:49;;;;;;;1.52;1.42;;;15.20;66.60;;;;;;4984359;28;20117;-76
2024/03/04 03:30:14;;;;;;;1.70;1.60;;;15.20;66.70;;;;;;4985156;28;20027;-76
2024/03/04 03:32:40;;;;;;;1.70;1.60;;;15.20;66.60;;;;;;4986295;28;20500;-76
2024/03/04 03:35:06;;;;;;;1.60;1.50;;;15.20;66.50;;;;;;4984952;28;20062;-76
2024/03/04 03:37:33;;;;;;;1.35;1.23;;;15.20;66.60;;;;;;4986855;28;20034;-76
2024/03/04 03:39:59;;;;;;;1.40;1.30;;;15.20;66.70;;;;;;4980905;28;20047;-76
2024/03/04 03:42:24;;;;;;;1.70;1.60;;;15.20;66.50;;;;;;4985478;28;20404;-76
2024/03/04 03:44:50;;;;;;;1.50;1.40;;;15.20;66.40;;;;;;4983371;28;20038;-76
2024/03/04 03:47:16;;;;;;;1.63;1.52;;;15.20;66.40;;;;;;4987434;28;20098;-76
2024/03/04 03:49:41;;;;;;;1.50;1.40;;;15.20;66.50;;;;;;5001513;28;20046;-75
2024/03/04 03:52:07;;;;;;;1.98;1.52;;;15.20;66.60;;;;;;4984810;28;20050;-75
2024/03/04 03:54:32;;;;;;;1.48;1.40;;;15.20;66.40;;;;;;4983075;28;20934;-75
2024/03/04 03:56:58;;;;;;;1.52;1.45;;;15.20;66.40;;;;;;4969056;28;20035;-75
2024/03/04 03:59:23;;;;;;;2.03;1.33;;;15.20;66.60;;;;;;4984592;28;20046;-75
2024/03/04 04:01:49;;;;;;;1.50;1.40;;;15.20;66.60;;;;;;4983643;28;20042;-75
2024/03/04 04:04:15;;;;;;;1.38;1.27;;;15.20;66.40;;;;;;4981345;28;20062;-75
2024/03/04 04:06:40;;;;;;;1.38;1.27;;;15.20;66.30;;;;;;4967812;28;20039;-74
2024/03/04 04:09:06;;;;;;;1.42;1.33;;;15.20;66.40;;;;;;5000425;28;20528;-75
2024/03/04 04:11:32;;;;;;;1.45;1.35;;;15.20;66.50;;;;;;4987086;28;20089;-74
2024/03/04 04:13:58;;;;;;;1.48;1.38;;;15.20;66.40;;;;;;4983386;28;20057;-75
2024/03/04 04:16:29;;;;;;;1.45;1.35;;;15.10;66.40;;;;;;4967162;28;20088;-75
2024/03/04 04:18:55;;;;;;;1.50;1.40;;;15.10;66.30;;;;;;4967499;28;20416;-75
2024/03/04 04:21:21;;;;;;;1.50;1.40;;;15.10;66.50;;;;;;4999784;28;20042;-76
2024/03/04 04:23:46;;;;;;;0.95;0.95;;;15.10;66.50;;;;;;4984330;28;20054;-76
2024/03/04 04:26:12;;;;;;;1.27;1.27;;;15.10;66.40;;;;;;4987219;28;20052;-75
2024/03/04 04:28:40;;;;;;;1.20;1.10;;;15.10;66.40;;;;;;4968384;28;20033;-75
2024/03/04 04:31:06;;;;;;;1.33;1.25;;;15.10;66.40;;;;;;4977612;28;20497;-75
2024/03/04 04:33:34;;;;;;;1.15;1.15;;;15.10;66.30;;;;;;4967598;28;20053;-75
2024/03/04 04:35:59;;;;;;;1.40;1.40;;;15.10;67.10;;;;;;4983664;28;20107;-75
2024/03/04 04:38:25;;;;;;;1.13;1.05;;;15.10;66.30;;;;;;4968625;28;20106;-75
2024/03/04 04:40:51;;;;;;;1.42;1.33;;;15.10;66.30;;;;;;4986474;28;20039;-75
2024/03/04 04:43:16;;;;;;;1.52;1.30;;;15.10;66.40;;;;;;4998968;28;20030;-75
2024/03/04 04:45:42;;;;;;;1.65;1.55;;;15.10;66.40;;;;;;4967205;28;20539;-75
2024/03/04 04:48:07;;;;;;;1.50;1.40;;;15.10;66.30;;;;;;4982775;28;20368;-75
2024/03/04 04:50:33;;;;;;;1.40;1.30;;;15.10;66.50;;;;;;4980604;28;20046;-75
2024/03/04 04:52:58;;;;;;;1.30;1.20;;;15.10;66.40;;;;;;4987051;28;20518;-75
2024/03/04 04:55:24;;;;;;;1.27;1.25;;;15.10;66.30;;;;;;4981431;28;20042;-76
2024/03/04 04:57:50;;;;;;;1.20;1.10;;;15.10;66.30;;;;;;4985477;28;20035;-75
2024/03/04 05:00:15;;;;;;;1.23;1.23;;;15.10;66.50;;;;;;4985260;28;20403;-75
2024/03/04 05:02:41;;;;;;;1.45;1.35;;;15.10;66.30;;;;;;5001082;28;20129;-76
2024/03/04 05:05:08;;;;;;;1.05;1.00;;;15.10;66.40;;;;;;4987706;28;20488;-76
2024/03/04 05:07:33;;;;;;;1.20;1.20;;;15.00;66.30;;;;;;4987261;28;20133;-75
2024/03/04 05:09:59;;;;;;;1.10;1.10;;;15.00;66.50;;;;;;4970596;28;20185;-76
2024/03/04 05:12:24;;;;;;;1.40;1.30;;;15.00;66.30;;;;;;4986214;28;20088;-75
2024/03/04 05:14:50;;;;;;;1.40;1.30;;;15.00;66.40;;;;;;4989028;28;20072;-75
2024/03/04 05:17:16;;;;;;;1.10;1.10;;;15.00;66.30;;;;;;4989952;28;20038;-75
2024/03/04 05:19:41;;;;;;;1.27;1.17;;;15.00;66.30;;;;;;4970134;28;20045;-75
2024/03/04 05:22:09;;;;;;;1.48;1.38;;;15.00;66.40;;;;;;4969022;28;20038;-75
2024/03/04 05:24:35;;;;;;;1.17;1.17;;;15.00;66.40;;;;;;4987556;28;20050;-75
2024/03/04 05:27:00;;;;;;;1.10;1.10;;;15.10;66.30;;;;;;4986604;28;20447;-75
2024/03/04 05:29:26;;;;;;;0.98;0.98;;;15.00;66.50;;;;;;4990648;28;20092;-75
2024/03/04 05:31:53;;;;;;;1.02;1.02;;;15.00;66.60;;;;;;4990421;28;20046;-75
2024/03/04 05:34:18;;;;;;;1.55;1.45;;;15.00;66.50;;;;;;4987848;28;20053;-75
2024/03/04 05:36:44;;;;;;;0.88;0.88;;;15.00;66.60;;;;;;4988760;28;20030;-75
2024/03/04 05:39:10;;;;;;;0.93;0.93;;;15.00;66.30;;;;;;4987726;28;20042;-75
2024/03/04 05:41:37;;;;;;;1.30;1.20;;;15.00;66.40;;;;;;4984205;28;20084;-75
2024/03/04 05:44:04;;;;;;;1.83;1.38;;;15.00;66.50;;;;;;4988663;28;20038;-75
2024/03/04 05:46:30;;;;;;;1.10;1.10;;;15.00;66.50;;;;;;4988181;28;22154;-75
2024/03/04 05:48:55;;;;;;;1.40;1.30;;;15.00;66.20;;;;;;4988387;28;20034;-75
2024/03/04 05:51:21;;;;;;;1.08;1.08;;;15.00;66.30;;;;;;4985427;28;20042;-75
2024/03/04 05:53:48;;;;;;;1.20;1.15;;;15.00;66.30;;;;;;4988406;28;20042;-76
2024/03/04 05:56:14;;;;;;;1.33;1.30;;;15.00;66.40;;;;;;4987912;28;20069;-75
2024/03/04 05:58:40;;;;;;;1.20;1.10;;;15.00;66.40;;;;;;4985973;28;20049;-75
2024/03/04 06:01:06;;;;;;;1.23;1.23;;;15.00;66.50;;;;;;4988791;28;20061;-75
2024/03/04 06:03:31;;;;;;;1.83;1.13;;;15.00;66.70;;;;;;4987030;28;20045;-75
2024/03/04 06:05:57;;;;;;;1.05;1.05;;;15.00;66.80;;;;;;4988263;28;20446;-75
2024/03/04 06:08:22;;;;;;;0.80;0.80;;;15.00;66.70;;;;;;4986831;28;20038;-75
2024/03/04 06:10:48;;;;;;;1.10;1.10;;;15.00;66.70;;;;;;4987680;28;20137;-75
2024/03/04 06:13:14;;;;;;;0.90;0.80;;;15.00;66.60;;;;;;4987192;28;20050;-75
2024/03/04 06:15:39;;;;;;;0.80;0.80;;;15.00;66.60;;;;;;4970063;28;20411;-75
2024/03/04 06:18:06;;;;;;;1.08;1.05;;;15.00;66.70;;;;;;5003580;28;20081;-75
2024/03/04 06:20:31;;;;;;;1.00;0.95;;;15.00;66.70;;;;;;4971509;28;20600;-75
2024/03/04 06:22:57;;;;;;;0.90;0.90;;;15.00;66.60;;;;;;4638757;28;9999977;-74
2024/03/04 06:25:23;;;;;;;1.08;0.90;;;15.00;66.50;;;;;;4983754;28;20046;-75
2024/03/04 06:27:49;;;;;;;1.50;1.20;;;15.00;66.40;;;;;;4984762;28;20092;-76
2024/03/04 06:30:15;;;;;;;1.15;1.10;;;15.00;67.30;;;;;;4984576;28;20070;-76
2024/03/04 06:32:41;;;;;;;1.13;1.02;;;15.00;66.80;;;;;;4984977;28;20042;-76
2024/03/04 06:35:07;;;;;;;1.30;1.20;;;15.00;67.10;;;;;;4986160;28;20069;-76
2024/03/04 06:37:33;;;;;;;1.17;0.77;;;15.00;68.20;;;;;;4965481;28;20044;-76
2024/03/04 06:39:58;;;;;;;1.02;1.02;;;15.00;68.30;;;;;;4978590;28;20046;-76
2024/03/04 06:42:24;;;;;;;1.38;1.13;;;15.00;68.10;;;;;;4998836;28;20213;-77
2024/03/04 06:44:49;;;;;;;1.52;1.30;;;15.00;68.40;;;;;;4950518;28;20050;-76
2024/03/04 06:47:15;;;;;;;1.70;1.25;;;15.00;69.40;;;;;;4985217;28;20046;-76
2024/03/04 06:49:41;;;;;;;1.70;1.10;;;15.00;71.80;;;;;;4999587;28;20038;-76
2024/03/04 06:52:07;;;;;;;1.10;1.00;;;15.00;70.70;;;;;;4975655;28;20074;-76
2024/03/04 06:54:33;;;;;;;1.15;1.05;;;15.00;70.70;;;;;;4965835;28;20058;-77
2024/03/04 06:56:59;;;;;;;0.70;0.70;;;15.00;70.70;;;;;;4982375;28;20050;-76
2024/03/04 06:59:24;;;;;;;0.70;0.70;;;15.00;70.70;;;;;;4980043;28;20053;-76
2024/03/04 07:01:50;;;;;;;0.75;0.75;;;15.00;70.70;;;;;;4964825;28;20050;-75
2024/03/04 07:04:15;;;;;;;0.90;0.90;;;15.00;70.90;;;;;;4980232;28;20073;-76
2024/03/04 07:06:41;;;;;;;0.80;0.80;;;15.00;71.10;;;;;;4964100;28;20557;-76
2024/03/04 07:09:06;;;;;;;1.00;1.00;;;15.00;71.20;;;;;;4997439;28;20042;-76
2024/03/04 07:11:32;;;;;;;0.90;0.90;;;15.00;71.40;;;;;;4948684;28;20172;-76
2024/03/04 07:13:57;;;;;;;0.95;0.80;;;15.00;71.50;;;;;;4982545;28;20034;-77
2024/03/04 07:16:23;;;;;;;0.93;0.93;;;15.00;71.70;;;;;;4980341;28;20034;-77
2024/03/04 07:18:49;;;;;;;1.08;0.90;;;15.00;71.50;;;;;;4980940;28;20061;-76
2024/03/04 07:21:15;;;;;;;1.10;0.98;;;15.00;71.50;;;;;;4982564;28;20200;-76
2024/03/04 07:23:41;;;;;;;0.98;0.90;;;15.00;71.30;;;;;;4945738;28;20587;-76
2024/03/04 07:26:09;;;;;;;0.88;0.80;;;15.00;71.20;;;;;;4998434;28;20050;-76
2024/03/04 07:28:36;;;;;;;0.80;0.80;;;15.00;71.10;;;;;;4965000;28;20162;-77
2024/03/04 07:31:02;;;;;;;0.90;0.70;;;15.00;71.20;;;;;;4979302;28;20035;-76
2024/03/04 07:33:28;;;;;;;0.98;0.95;;;15.00;71.10;;;;;;4979913;28;20049;-76
2024/03/04 07:35:53;;;;;;;0.82;0.80;;;15.00;70.90;;;;;;4978773;28;20057;-76
2024/03/04 07:38:19;;;;;;;0.90;0.88;;;15.00;70.90;;;;;;4982642;28;20052;-76
2024/03/04 07:40:45;;;;;;;1.08;1.00;;;15.00;71.00;;;;;;4981780;28;20049;-76
2024/03/04 07:43:10;;;;;;;0.70;0.70;;;15.00;71.10;;;;;;4966134;28;20058;-77
2024/03/04 07:45:37;;;;;;;0.75;0.75;;;15.00;70.90;;;;;;4980243;28;20078;-76
2024/03/04 07:48:03;;;;;;;0.70;0.70;;;15.00;70.70;;;;;;4983937;28;20066;-76
2024/03/04 07:50:29;;;;;;;0.70;0.60;;;15.00;70.90;;;;;;4982282;28;20046;-76
2024/03/04 07:52:54;;;;;;;1.10;0.60;;;15.00;71.20;;;;;;4986204;28;20121;-76
2024/03/04 07:55:20;;;;;;;1.30;0.68;;;15.00;71.30;;;;;;4982573;28;20038;-76
2024/03/04 07:57:45;;;;;;;0.55;0.55;;;15.00;71.40;;;;;;5002519;28;20534;-77
2024/03/04 08:00:13;;;;;;;2.25;0.80;;;14.90;71.80;;;;;;4967455;28;20468;-76
2024/03/04 08:02:43;;;;;;;0.85;0.70;;;15.00;72.00;;;;;;4985818;28;20042;-76
2024/03/04 08:05:09;;;;;;;1.30;0.90;;;14.90;71.90;;;;;;4965902;28;20112;-76
2024/03/04 08:07:38;;;;;;;1.00;0.65;;;14.90;71.90;;;;;;4985920;28;20051;-76
2024/03/04 08:10:06;;;;;;;1.67;0.90;;;15.00;72.00;;;;;;4986340;28;20053;-76
2024/03/04 08:12:32;;;;;;;0.70;0.70;;;14.90;71.90;;;;;;4984251;28;20046;-76
2024/03/04 08:14:58;;;;;;;1.35;0.70;;;14.90;72.30;;;;;;4986766;28;20526;-76
2024/03/04 08:17:26;;;;;;;0.55;0.55;;;14.90;72.20;;;;;;4986978;28;20042;-76
2024/03/04 08:19:54;;;;;;;0.88;0.88;;;15.00;72.80;;;;;;4985802;28;20547;-76
2024/03/04 08:22:20;;;;;;;0.82;0.70;;;14.90;72.20;;;;;;4976913;28;20512;-76
2024/03/04 08:24:45;;;;;;;0.85;0.85;;;14.90;72.50;;;;;;4983952;28;20101;-77
2024/03/04 08:27:11;;;;;;;0.93;0.60;;;14.90;72.30;;;;;;4985928;28;20085;-76
2024/03/04 08:29:36;;;;;;;1.33;0.50;;;15.00;72.20;;;;;;4985270;28;20133;-76
2024/03/04 08:32:04;;;;;;;0.80;0.80;;;14.90;72.40;;;;;;4987248;28;20049;-76
2024/03/04 08:34:31;;;;;;;1.27;0.60;;;15.00;72.40;;;;;;4982468;28;20095;-76
2024/03/04 08:36:57;;;;;;;0.60;0.60;;;14.90;72.30;;;;;;4984565;28;20508;-76
2024/03/04 08:39:22;;;;;;;0.68;0.68;;;14.90;72.40;;;;;;4970948;28;20046;-76
2024/03/04 08:41:48;;;;;;;0.88;0.73;;;14.90;72.40;;;;;;4989514;28;20511;-76
2024/03/04 08:44:14;;;;;;;0.63;0.55;;;15.00;72.60;;;;;;4990814;28;20591;-76
2024/03/04 08:46:39;;;;;;;1.17;0.68;;;14.90;72.60;;;;;;4988773;28;20104;-76
2024/03/04 08:49:05;;;;;;;0.70;0.70;;;15.00;72.80;;;;;;4989341;28;20566;-76
2024/03/04 08:51:31;;;;;;;0.73;0.70;;;15.00;72.60;;;;;;4989148;28;20066;-76
2024/03/04 08:53:56;;;;;;;0.60;0.60;;;15.00;73.10;;;;;;4990304;28;20392;-76
2024/03/04 08:56:23;;;;;;;0.57;0.50;;;15.00;72.80;;;;;;4988988;28;20046;-76
2024/03/04 08:58:49;;;;;;;0.57;0.50;;;15.00;72.60;;;;;;4971551;28;20030;-76
2024/03/04 09:01:14;;;;;;;0.63;0.60;;;15.00;72.80;;;;;;4985006;28;20041;-76
2024/03/04 09:03:43;;;;;;;0.60;0.60;;;15.00;72.50;;;;;;4986138;28;22420;-76
2024/03/04 09:06:17;;;;;;;0.57;0.55;;;15.00;72.50;;;;;;4988918;28;20039;-76
2024/03/04 09:08:43;;;;;;;0.60;0.60;;;15.00;72.70;;;;;;4989233;28;20160;-76
2024/03/04 09:11:12;;;;;;;0.50;0.47;;;15.00;72.50;;;;;;4990378;28;20038;-76
2024/03/04 09:13:39;;;;;;;0.77;0.60;;;15.00;72.50;;;;;;4971160;28;20076;-76
2024/03/04 09:16:05;;;;;;;0.95;0.60;;;15.00;72.50;;;;;;4986056;28;20054;-76
2024/03/04 09:18:31;;;;;;;0.57;0.57;;;15.10;72.50;;;;;;5003516;28;20058;-76
2024/03/04 09:20:57;;;;;;;0.65;0.47;;;15.00;72.40;;;;;;4989945;28;20407;-76
2024/03/04 09:23:24;;;;;;;0.63;0.63;;;15.00;73.20;;;;;;4969061;28;20488;-76
2024/03/04 09:25:49;;;;;;;0.68;0.68;;;15.00;72.30;;;;;;5003604;28;20085;-76
2024/03/04 09:28:15;;;;;;;1.35;0.60;;;15.00;72.20;;;;;;4984521;28;20504;-76
2024/03/04 09:30:41;;;;;;;0.50;0.50;;;15.10;72.30;;;;;;4965086;28;20118;-77
2024/03/04 09:33:07;;;;;;;0.60;0.60;;;15.00;72.20;;;;;;4988538;28;20027;-76
2024/03/04 09:35:33;;;;;;;0.60;0.60;;;15.10;72.20;;;;;;5004093;28;20034;-76
2024/03/04 09:37:59;;;;;;;1.10;0.50;;;15.10;72.10;;;;;;4989813;28;20031;-76
2024/03/04 09:40:25;;;;;;;0.60;0.57;;;15.10;71.80;;;;;;5002159;28;20084;-77
2024/03/04 09:42:50;;;;;;;0.50;0.50;;;15.10;71.60;;;;;;4988286;28;20129;-77
2024/03/04 09:45:19;;;;;;;0.85;0.57;;;15.20;71.50;;;;;;5003520;28;20043;-76
2024/03/04 09:47:48;;;;;;;0.50;0.47;;;15.20;71.30;;;;;;4981442;28;20088;-76
2024/03/04 09:50:14;;;;;;;0.70;0.70;;;15.20;71.10;;;;;;4987936;28;20038;-76
2024/03/04 09:52:40;;;;;;;0.50;0.50;;;15.20;71.00;;;;;;4968714;28;20065;-76
2024/03/04 09:55:05;;;;;;;0.50;0.40;;;15.20;70.80;;;;;;4971200;28;20060;-76
2024/03/04 09:57:31;;;;;;;0.60;0.60;;;15.20;70.80;;;;;;5003196;28;20072;-76
2024/03/04 09:59:58;;;;;;;0.50;0.50;;;15.20;70.80;;;;;;4981673;28;20039;-76
2024/03/04 10:02:24;;;;;;;0.65;0.43;;;15.20;70.80;;;;;;4988779;28;20381;-76
2024/03/04 10:04:50;;;;;;;0.82;0.50;;;15.20;70.80;;;;;;4982957;28;20178;-76
2024/03/04 10:07:16;;;;;;;1.20;0.60;;;15.20;70.80;;;;;;4971074;28;20034;-76
2024/03/04 10:09:41;;;;;;;0.57;0.40;;;15.20;71.00;;;;;;4969252;28;20043;-76
2024/03/04 10:12:07;;;;;;;0.30;0.30;;;15.20;70.80;;;;;;4985553;28;20034;-76
2024/03/04 10:14:33;;;;;;;0.35;0.35;;;15.20;70.80;;;;;;4988079;28;20126;-76
2024/03/04 10:16:58;;;;;;;0.52;0.52;;;15.20;71.00;;;;;;4986857;28;20125;-76
2024/03/04 10:19:24;;;;;;;0.50;0.50;;;15.20;70.90;;;;;;5003383;28;20170;-76
2024/03/04 10:21:50;;;;;;;0.50;0.50;;;15.20;70.80;;;;;;5002696;28;20076;-76
2024/03/04 10:24:15;;;;;;;0.40;0.40;;;15.20;70.80;;;;;;4968831;28;20130;-76
2024/03/04 10:26:45;;;;;;;0.40;0.40;;;15.20;70.80;;;;;;5003855;28;20411;-76
2024/03/04 10:29:12;;;;;;;0.52;0.50;;;15.20;70.80;;;;;;4987428;28;20070;-76
2024/03/04 10:31:48;;;;;;;0.40;0.40;;;15.20;70.80;;;;;;4987275;28;20038;-76
2024/03/04 10:34:14;;;;;;;0.70;0.70;;;15.20;70.80;;;;;;5000312;28;20483;-76
2024/03/04 10:36:40;;;;;;;0.52;0.52;;;15.20;70.80;;;;;;4985956;28;20037;-76
2024/03/04 10:39:12;;;;;;;0.52;0.45;;;15.20;70.90;;;;;;4970830;28;20053;-76
2024/03/04 10:41:38;;;;;;;0.40;0.40;;;15.20;70.80;;;;;;4969431;28;20436;-76
2024/03/04 10:44:03;;;;;;;1.15;1.05;;;15.20;71.10;;;;;;4971365;28;20038;-76
2024/03/04 10:46:29;;;;;;;0.50;0.40;;;15.20;70.90;;;;;;4951585;28;20472;-76
2024/03/04 10:48:54;;;;;;;0.45;0.40;;;15.20;71.10;;;;;;4989103;28;20037;-76
2024/03/04 10:51:20;;;;;;;0.47;0.40;;;15.20;71.20;;;;;;5003229;28;20035;-76
2024/03/04 10:53:46;;;;;;;0.60;0.60;;;15.20;71.10;;;;;;4988947;28;20026;-76
2024/03/04 10:56:14;;;;;;;0.47;0.47;;;15.20;71.00;;;;;;4987277;28;20066;-76
2024/03/04 10:58:43;;;;;;;0.40;0.38;;;15.20;70.90;;;;;;4968625;28;20054;-76
2024/03/04 11:01:19;;;;;;;1.45;0.45;;;15.20;71.30;;;;;;4968579;28;20057;-77
2024/03/04 11:03:49;;;;;;;0.40;0.40;;;15.20;71.30;;;;;;5000148;28;20416;-76
2024/03/04 11:06:18;;;;;;;0.50;0.50;;;15.20;71.20;;;;;;4968482;28;20038;-76
2024/03/04 11:08:49;;;;;;;0.50;0.50;;;15.20;71.30;;;;;;4969481;28;20117;-76
2024/03/04 11:11:19;;;;;;;0.50;0.47;;;15.20;71.40;;;;;;4986564;28;20054;-76
2024/03/04 11:13:49;;;;;;;0.52;0.52;;;15.20;71.40;;;;;;4968867;28;20074;-76
2024/03/04 11:16:41;;;;;;;0.40;0.40;;;15.20;71.30;;;;;;4966040;28;20047;-76
2024/03/04 11:19:44;;;;;;;0.50;0.50;;;15.20;71.50;;;;;;4984757;28;20046;-76
2024/03/04 11:22:12;;;;;;;0.60;0.50;;;15.20;71.40;;;;;;4983738;28;20133;-76
2024/03/04 11:24:37;;;;;;;0.50;0.50;;;15.20;71.40;;;;;;4987005;28;20052;-76
2024/03/04 11:27:03;;;;;;;0.47;0.30;;;15.20;71.50;;;;;;5002079;28;20440;-76
2024/03/04 11:29:29;;;;;;;0.30;0.30;;;15.20;71.70;;;;;;4970366;28;20121;-76
2024/03/04 11:31:55;;;;;;;0.40;0.40;;;15.20;71.60;;;;;;4969538;28;20056;-76
2024/03/04 11:34:21;;;;;;;0.50;0.50;;;15.20;71.50;;;;;;4982655;28;20053;-76
2024/03/04 11:36:48;;;;;;;0.85;0.52;;;15.20;71.70;;;;;;4986246;28;20058;-76
2024/03/04 11:39:22;;;;;;;0.52;0.52;;;15.20;72.10;;;;;;4985425;28;20052;-76
2024/03/04 11:41:48;;;;;;;0.50;0.50;;;15.20;72.60;;;;;;5000759;28;20510;-77
2024/03/04 11:44:23;;;;;;;0.35;0.35;;;15.20;71.70;;;;;;4986744;28;20050;-76
2024/03/04 11:46:48;;;;;;;0.40;0.40;;;15.20;71.70;;;;;;4985683;28;20134;-77
2024/03/04 11:49:21;;;;;;;0.30;0.30;;;15.20;72.50;;;;;;4984363;28;20042;-76
2024/03/04 11:51:55;;;;;;;0.50;0.50;;;15.20;71.70;;;;;;4983431;28;20050;-76
2024/03/04 11:54:26;;;;;;;0.30;0.30;;;15.20;71.70;;;;;;4985766;28;20077;-76
2024/03/04 11:56:52;;;;;;;0.40;0.40;;;15.20;71.80;;;;;;4966697;28;20046;-76
2024/03/04 11:59:17;;;;;;;0.50;0.50;;;15.20;71.70;;;;;;4968866;28;20049;-76
2024/03/04 12:01:43;;;;;;;0.60;0.40;;;15.20;71.70;;;;;;4982457;28;20057;-76
2024/03/04 12:04:09;;;;;;;0.40;0.40;;;15.20;71.70;;;;;;4963290;28;20066;-76
2024/03/04 12:06:34;;;;;;;0.35;0.35;;;15.20;71.70;;;;;;4964250;28;20581;-76
2024/03/04 12:09:00;;;;;;;0.47;0.47;;;15.20;71.50;;;;;;4634409;28;9999968;-76
2024/03/04 12:11:26;;;;;;;0.45;0.40;;;15.20;71.50;;;;;;4967689;28;20054;-77
2024/03/04 12:13:52;;;;;;;0.50;0.50;;;15.20;71.30;;;;;;4948489;28;20047;-77
2024/03/04 12:16:18;;;;;;;0.88;0.55;;;15.20;71.50;;;;;;4987156;28;20050;-76
2024/03/04 12:18:47;;;;;;;0.57;0.57;;;15.20;71.40;;;;;;5001603;28;20046;-76
2024/03/04 12:21:13;;;;;;;0.65;0.50;;;15.20;71.20;;;;;;4967353;28;20054;-76
2024/03/04 12:23:38;;;;;;;0.35;0.35;;;15.20;71.30;;;;;;4987252;28;20046;-76
2024/03/04 12:26:12;;;;;;;0.40;0.30;;;15.20;71.30;;;;;;4987179;28;20046;-76
2024/03/04 12:28:38;;;;;;;0.38;0.38;;;15.20;71.00;;;;;;5000807;28;20034;-76
2024/03/04 12:31:13;;;;;;;0.60;0.60;;;15.20;71.20;;;;;;4984226;28;20047;-77
2024/03/04 12:33:38;;;;;;;0.30;0.30;;;15.20;70.80;;;;;;4979060;28;20096;-76
2024/03/04 12:36:07;;;;;;;0.75;0.60;;;15.20;70.90;;;;;;4984056;28;20496;-76
2024/03/04 12:38:33;;;;;;;0.38;0.38;;;15.30;70.90;;;;;;4988811;28;20097;-77
2024/03/04 12:40:59;;;;;;;0.22;0.22;;;15.30;70.90;;;;;;4989296;28;20034;-76
2024/03/04 12:43:25;;;;;;;0.95;0.77;;;15.30;71.60;;;;;;5004797;28;20046;-76